createdAt,value
2023-03-15T00:01:07.309Z,98.30
2023-03-15T00:03:37.245Z,98.30
2023-03-15T00:06:04.772Z,98.30
2023-03-15T00:08:34.977Z,98.30
2023-03-15T00:11:02.257Z,98.30
2023-03-15T00:13:30.556Z,98.30
2023-03-15T00:16:00.465Z,98.30
2023-03-15T00:18:27.675Z,98.30
2023-03-15T00:20:54.902Z,98.30
2023-03-15T00:23:22.040Z,98.30
2023-03-15T00:25:50.322Z,98.30
2023-03-15T00:28:17.304Z,98.30
2023-03-15T00:30:44.661Z,98.30
2023-03-15T00:33:13.869Z,98.30
2023-03-15T00:35:43.061Z,98.30
2023-03-15T00:38:10.728Z,98.30
2023-03-15T00:40:38.075Z,98.30
2023-03-15T00:43:05.034Z,98.30
2023-03-15T00:45:31.936Z,98.30
2023-03-15T00:47:58.623Z,98.30
2023-03-15T00:50:25.866Z,98.30
2023-03-15T00:52:52.562Z,98.30
2023-03-15T00:55:21.440Z,98.30
2023-03-15T00:57:48.853Z,98.30
2023-03-15T01:00:24.203Z,98.30
2023-03-15T01:02:52.906Z,98.30
2023-03-15T01:05:21.057Z,98.30
2023-03-15T01:07:47.816Z,98.30
2023-03-15T01:10:15.434Z,98.30
2023-03-15T01:12:42.301Z,98.30
2023-03-15T01:15:12.694Z,98.30
2023-03-15T01:17:40.516Z,98.30
2023-03-15T01:20:08.208Z,98.30
2023-03-15T01:22:35.683Z,98.30
2023-03-15T01:25:02.429Z,98.30
2023-03-15T01:27:29.487Z,98.30
2023-03-15T01:29:56.253Z,98.30
2023-03-15T01:32:23.052Z,98.30
2023-03-15T01:34:50.289Z,98.30
2023-03-15T01:37:16.946Z,98.30
2023-03-15T01:39:45.195Z,98.30
2023-03-15T01:42:12.330Z,98.30
2023-03-15T01:44:57.700Z,98.30
2023-03-15T01:47:27.294Z,98.30
2023-03-15T01:50:02.849Z,98.30
2023-03-15T01:52:37.365Z,98.30
2023-03-15T01:55:14.032Z,98.30
2023-03-15T01:58:00.490Z,98.30
2023-03-15T02:00:29.515Z,98.30
2023-03-15T02:03:10.046Z,98.30
2023-03-15T02:05:45.988Z,98.30
2023-03-15T02:08:19.133Z,98.30
2023-03-15T02:10:53.218Z,98.30
2023-03-15T02:13:23.343Z,98.30
2023-03-15T02:15:53.482Z,98.30
2023-03-15T02:18:26.583Z,98.30
2023-03-15T02:21:19.367Z,98.30
2023-03-15T02:23:50.554Z,98.30
2023-03-15T02:26:53.552Z,98.30
2023-03-15T02:29:21.816Z,98.30
2023-03-15T02:31:49.312Z,98.30
2023-03-15T02:34:16.292Z,98.30
2023-03-15T02:36:43.327Z,98.30
2023-03-15T02:39:15.850Z,98.30
2023-03-15T02:41:46.261Z,98.30
2023-03-15T02:44:36.385Z,98.30
2023-03-15T02:47:11.059Z,98.30
2023-03-15T02:49:42.316Z,98.30
2023-03-15T02:52:09.816Z,98.30
2023-03-15T02:54:36.644Z,98.30
2023-03-15T02:57:03.853Z,98.30
2023-03-15T02:59:31.398Z,98.30
2023-03-15T03:01:58.095Z,98.30
2023-03-15T03:04:24.760Z,98.30
2023-03-15T03:06:51.416Z,98.30
2023-03-15T03:09:23.745Z,98.30
2023-03-15T03:11:50.621Z,98.30
2023-03-15T03:14:17.885Z,98.30
2023-03-15T03:16:44.652Z,98.30
2023-03-15T03:19:12.680Z,98.30
2023-03-15T03:21:43.312Z,98.30
2023-03-15T03:24:15.929Z,98.30
2023-03-15T03:26:46.112Z,98.30
2023-03-15T03:29:17.692Z,98.30
2023-03-15T03:31:47.363Z,98.30
2023-03-15T03:34:15.632Z,98.30
2023-03-15T03:36:45.535Z,98.30
2023-03-15T03:39:15.491Z,98.30
2023-03-15T03:41:43.728Z,98.30
2023-03-15T03:44:11.989Z,98.30
2023-03-15T03:46:39.778Z,98.30
2023-03-15T03:49:06.592Z,98.30
2023-03-15T03:51:34.860Z,98.30
2023-03-15T03:54:02.157Z,98.30
2023-03-15T03:56:29.769Z,98.30
2023-03-15T03:58:56.693Z,98.30
2023-03-15T04:01:30.435Z,98.30
2023-03-15T04:03:57.307Z,98.30
2023-03-15T04:06:24.812Z,98.30
2023-03-15T04:08:51.496Z,98.30
2023-03-15T04:11:26.618Z,98.30
2023-03-15T04:13:57.121Z,98.30
2023-03-15T04:16:24.670Z,98.30
2023-03-15T04:19:01.900Z,98.30
2023-03-15T04:21:31.973Z,98.30
2023-03-15T04:24:09.399Z,98.30
2023-03-15T04:26:57.725Z,98.30
2023-03-15T04:29:37.670Z,98.30
2023-03-15T04:32:18.006Z,98.30
2023-03-15T04:35:07.647Z,98.30
2023-03-15T04:38:04.005Z,98.30
2023-03-15T04:40:56.893Z,98.30
2023-03-15T04:43:43.008Z,98.30
2023-03-15T04:46:27.947Z,98.30
2023-03-15T04:49:08.691Z,98.30
2023-03-15T04:51:51.950Z,98.30
2023-03-15T04:54:39.211Z,98.30
2023-03-15T04:57:29.090Z,98.30
2023-03-15T05:00:11.880Z,98.30
2023-03-15T05:02:57.655Z,98.30
2023-03-15T05:05:41.277Z,98.30
2023-03-15T05:08:26.740Z,98.30
2023-03-15T05:11:21.120Z,98.30
2023-03-15T05:14:01.630Z,98.30
2023-03-15T05:16:31.872Z,98.30
2023-03-15T05:19:17.072Z,98.30
2023-03-15T05:22:16.223Z,98.30
2023-03-15T05:25:06.616Z,98.30
2023-03-15T05:27:51.276Z,98.30
2023-03-15T05:30:52.174Z,98.30
2023-03-15T05:33:54.402Z,98.30
2023-03-15T05:36:39.831Z,98.30
2023-03-15T05:39:22.714Z,98.30
2023-03-15T05:42:06.255Z,98.30
2023-03-15T05:44:59.088Z,98.30
2023-03-15T05:47:44.484Z,98.30
2023-03-15T05:50:25.343Z,98.30
2023-03-15T05:53:08.652Z,98.30
2023-03-15T05:55:43.217Z,98.30
2023-03-15T05:58:29.302Z,98.30
2023-03-15T06:01:04.901Z,98.30
2023-03-15T06:03:58.903Z,98.30
2023-03-15T06:06:31.522Z,98.30
2023-03-15T06:08:59.911Z,98.30
2023-03-15T06:11:27.070Z,98.30
2023-03-15T06:13:53.947Z,98.30
2023-03-15T06:16:41.692Z,98.30
2023-03-15T06:19:08.483Z,98.30
2023-03-15T06:21:35.199Z,98.30
2023-03-15T06:24:06.430Z,98.30
2023-03-15T06:26:34.530Z,98.30
2023-03-15T06:29:03.652Z,98.30
2023-03-15T06:31:30.405Z,98.30
2023-03-15T06:34:02.820Z,98.30
2023-03-15T06:36:31.455Z,98.30
2023-03-15T06:38:58.151Z,98.30
2023-03-15T06:41:25.088Z,98.30
2023-03-15T06:43:56.851Z,98.30
2023-03-15T06:46:23.623Z,98.30
2023-03-15T06:48:50.283Z,98.30
2023-03-15T06:51:17.310Z,98.30
2023-03-15T06:53:44.014Z,98.30
2023-03-15T06:56:11.270Z,98.30
2023-03-15T06:58:37.910Z,98.10
2023-03-15T07:01:04.857Z,98.10
2023-03-15T07:03:31.611Z,98.10
2023-03-15T07:05:58.348Z,98.00
2023-03-15T07:08:25.803Z,97.90
2023-03-15T07:10:52.482Z,97.90
2023-03-15T07:13:19.932Z,97.50
2023-03-15T07:15:50.885Z,97.20
2023-03-15T07:18:17.531Z,97.40
2023-03-15T07:20:44.116Z,97.40
2023-03-15T07:23:10.764Z,97.50
2023-03-15T07:25:52.071Z,97.40
2023-03-15T07:28:22.639Z,97.10
2023-03-15T07:30:57.740Z,97.30
2023-03-15T07:33:25.726Z,97.00
2023-03-15T07:35:55.970Z,97.60
2023-03-15T07:38:30.895Z,97.30
2023-03-15T07:40:58.167Z,98.00
2023-03-15T07:43:25.026Z,98.10
2023-03-15T07:46:03.552Z,98.20
2023-03-15T07:48:30.842Z,97.30
2023-03-15T07:50:57.597Z,97.50
2023-03-15T07:53:24.435Z,97.50
2023-03-15T07:55:51.121Z,97.20
2023-03-15T07:58:20.235Z,96.00
2023-03-15T08:00:47.551Z,96.90
2023-03-15T08:03:14.358Z,97.60
2023-03-15T08:05:41.137Z,97.60
2023-03-15T08:08:07.859Z,96.70
2023-03-15T08:10:34.532Z,95.80
2023-03-15T08:13:01.165Z,95.90
2023-03-15T08:15:28.104Z,96.10
2023-03-15T08:17:54.786Z,97.20
2023-03-15T08:20:22.380Z,97.60
2023-03-15T08:22:51.309Z,96.40
2023-03-15T08:25:23.282Z,96.60
2023-03-15T08:27:50.673Z,96.30
2023-03-15T08:30:18.494Z,96.40
2023-03-15T08:32:46.900Z,96.10
2023-03-15T08:35:16.293Z,96.00
2023-03-15T08:37:47.700Z,95.10
2023-03-15T08:40:16.407Z,94.30
2023-03-15T08:42:43.114Z,95.90
2023-03-15T08:45:10.514Z,96.20
2023-03-15T08:47:37.716Z,96.20
2023-03-15T08:50:06.957Z,96.20
2023-03-15T08:52:33.710Z,95.90
2023-03-15T08:55:00.538Z,95.20
2023-03-15T08:57:28.773Z,95.30
2023-03-15T08:59:56.111Z,97.20
2023-03-15T09:02:23.454Z,97.30
2023-03-15T09:04:52.382Z,97.20
2023-03-15T09:07:21.700Z,95.90
2023-03-15T09:09:48.758Z,96.90
2023-03-15T09:12:16.781Z,96.20
2023-03-15T09:14:44.032Z,96.00
2023-03-15T09:17:11.134Z,96.20
2023-03-15T09:19:38.234Z,94.80
2023-03-15T09:22:16.249Z,94.40
2023-03-15T09:24:43.686Z,94.30
2023-03-15T09:27:11.730Z,94.40
2023-03-15T09:29:38.937Z,94.20
2023-03-15T09:32:05.798Z,94.00
2023-03-15T09:34:39.957Z,94.20
2023-03-15T09:37:08.834Z,94.00
2023-03-15T09:39:35.462Z,92.00
2023-03-15T09:42:06.452Z,91.90
2023-03-15T09:44:42.301Z,92.90
2023-03-15T09:47:42.852Z,93.30
2023-03-15T09:50:22.565Z,94.40
2023-03-15T09:52:56.264Z,93.90
2023-03-15T09:55:25.358Z,94.80
2023-03-15T09:58:01.727Z,95.80
2023-03-15T10:00:51.932Z,97.30
2023-03-15T10:03:21.728Z,98.30
2023-03-15T10:06:00.744Z,98.30
2023-03-15T10:08:27.548Z,98.30
2023-03-15T10:11:08.734Z,98.30
2023-03-15T10:13:44.280Z,98.30
2023-03-15T10:16:27.155Z,98.30
2023-03-15T10:19:25.257Z,98.30
2023-03-15T10:21:56.014Z,98.30
2023-03-15T10:24:40.871Z,98.30
2023-03-15T10:27:15.774Z,98.30
2023-03-15T10:29:43.415Z,98.30
2023-03-15T10:32:20.369Z,98.30
2023-03-15T10:34:52.477Z,98.30
2023-03-15T10:37:19.944Z,98.30
2023-03-15T10:39:57.276Z,98.30
2023-03-15T10:42:32.913Z,98.30
2023-03-15T10:45:21.745Z,98.30
2023-03-15T10:47:54.086Z,98.30
2023-03-15T10:50:29.697Z,98.30
2023-03-15T10:52:58.572Z,98.30
2023-03-15T10:55:34.356Z,98.30
2023-03-15T10:58:21.264Z,98.30
2023-03-15T11:00:58.311Z,98.30
2023-03-15T11:03:26.047Z,98.30
2023-03-15T11:05:56.168Z,98.30
2023-03-15T11:08:35.170Z,98.30
2023-03-15T11:11:01.979Z,98.30
2023-03-15T11:13:31.611Z,98.30
2023-03-15T11:16:07.491Z,98.30
2023-03-15T11:18:42.762Z,98.30
2023-03-15T11:21:14.129Z,98.30
2023-03-15T11:23:44.475Z,98.30
2023-03-15T11:26:32.176Z,98.30
2023-03-15T11:29:04.483Z,98.30
2023-03-15T11:31:31.845Z,98.30
2023-03-15T11:34:05.538Z,98.30
2023-03-15T11:36:36.680Z,98.30
2023-03-15T11:39:06.625Z,98.30
2023-03-15T11:41:43.777Z,98.30
2023-03-15T11:44:36.377Z,98.30
2023-03-15T11:47:09.020Z,98.30
2023-03-15T11:49:45.962Z,98.30
2023-03-15T11:52:13.257Z,98.30
2023-03-15T11:54:40.102Z,98.30
2023-03-15T11:57:29.660Z,98.30
2023-03-15T11:59:57.584Z,98.30
2023-03-15T12:02:26.141Z,98.30
2023-03-15T12:04:54.371Z,98.30
2023-03-15T12:07:23.819Z,98.30
2023-03-15T12:09:56.298Z,98.30
2023-03-15T12:12:26.058Z,98.30
2023-03-15T12:15:13.966Z,98.20
2023-03-15T12:17:51.258Z,97.70
2023-03-15T12:20:37.762Z,97.50
2023-03-15T12:23:13.393Z,98.30
2023-03-15T12:25:58.666Z,98.30
2023-03-15T12:28:36.121Z,98.30
2023-03-15T12:31:06.684Z,98.30
2023-03-15T12:33:45.308Z,98.30
2023-03-15T12:36:39.432Z,98.30
2023-03-15T12:39:15.172Z,98.30
2023-03-15T12:41:46.641Z,98.30
2023-03-15T12:44:25.668Z,98.30
2023-03-15T12:46:52.556Z,98.30
2023-03-15T12:49:25.208Z,98.30
2023-03-15T12:51:59.580Z,98.30
2023-03-15T12:54:33.924Z,98.30
2023-03-15T12:57:04.118Z,98.30
2023-03-15T12:59:30.760Z,98.10
2023-03-15T13:01:59.529Z,98.30
2023-03-15T13:04:28.683Z,98.30
2023-03-15T13:07:20.007Z,98.30
2023-03-15T13:10:23.918Z,98.30
2023-03-15T13:12:56.398Z,98.30
2023-03-15T13:15:34.591Z,98.30
2023-03-15T13:18:17.705Z,98.30
2023-03-15T13:21:01.994Z,98.30
2023-03-15T13:23:31.616Z,98.30
2023-03-15T13:26:14.684Z,98.30
2023-03-15T13:29:00.998Z,98.30
2023-03-15T13:31:31.668Z,98.30
2023-03-15T13:34:21.886Z,98.30
2023-03-15T13:36:55.461Z,98.30
2023-03-15T13:39:27.928Z,98.30
2023-03-15T13:42:03.832Z,98.30
2023-03-15T13:44:31.688Z,98.30
2023-03-15T13:46:59.063Z,98.30
2023-03-15T13:49:31.902Z,98.30
2023-03-15T13:52:00.518Z,98.30
2023-03-15T13:54:30.559Z,98.30
2023-03-15T13:57:31.989Z,98.30
2023-03-15T14:00:19.224Z,98.30
2023-03-15T14:03:17.391Z,98.30
2023-03-15T14:05:47.993Z,98.30
2023-03-15T14:08:29.639Z,98.30
2023-03-15T14:11:04.403Z,98.30
2023-03-15T14:13:34.420Z,98.30
2023-03-15T14:16:06.622Z,98.30
2023-03-15T14:18:33.305Z,98.30
2023-03-15T14:21:10.822Z,98.30
2023-03-15T14:23:41.424Z,98.30
2023-03-15T14:26:16.527Z,98.30
2023-03-15T14:28:52.570Z,98.20
2023-03-15T14:31:28.883Z,96.90
2023-03-15T14:34:15.724Z,95.40
2023-03-15T14:36:45.567Z,93.90
2023-03-15T14:39:25.628Z,93.80
2023-03-15T14:41:52.312Z,94.20
2023-03-15T14:44:19.338Z,92.90
2023-03-15T14:46:46.005Z,92.40
2023-03-15T14:49:23.588Z,92.30
2023-03-15T14:51:55.413Z,92.50
2023-03-15T14:54:22.462Z,91.90
2023-03-15T14:56:49.146Z,91.20
2023-03-15T14:59:15.779Z,90.10
2023-03-15T15:01:48.934Z,90.90
2023-03-15T15:04:16.256Z,90.70
2023-03-15T15:06:51.325Z,90.10
2023-03-15T15:09:28.244Z,90.00
2023-03-15T15:12:01.151Z,91.90
2023-03-15T15:14:31.920Z,92.70
2023-03-15T15:16:58.957Z,93.00
2023-03-15T15:19:26.006Z,93.00
2023-03-15T15:21:56.545Z,92.40
2023-03-15T15:24:26.294Z,91.60
2023-03-15T15:26:53.756Z,91.80
2023-03-15T15:29:20.723Z,91.90
2023-03-15T15:31:47.582Z,92.50
2023-03-15T15:34:17.722Z,92.60
2023-03-15T15:36:46.177Z,91.90
2023-03-15T15:39:26.179Z,92.20
2023-03-15T15:41:53.219Z,92.10
2023-03-15T15:44:21.636Z,91.70
2023-03-15T15:46:48.539Z,92.70
2023-03-15T15:49:21.634Z,90.60
2023-03-15T15:51:50.521Z,90.90
2023-03-15T15:54:25.366Z,91.50
2023-03-15T15:56:57.098Z,90.30
2023-03-15T15:59:25.706Z,91.80
2023-03-15T16:02:00.649Z,91.80
2023-03-15T16:04:32.805Z,91.90
2023-03-15T16:07:02.205Z,91.30
2023-03-15T16:09:34.642Z,91.20
2023-03-15T16:12:05.124Z,92.20
2023-03-15T16:14:35.046Z,92.70
2023-03-15T16:17:01.670Z,92.60
2023-03-15T16:19:32.366Z,92.10
2023-03-15T16:22:04.913Z,91.90
2023-03-15T16:24:36.255Z,91.70
2023-03-15T16:27:06.457Z,92.50
2023-03-15T16:29:39.910Z,92.80
2023-03-15T16:32:17.912Z,92.70
2023-03-15T16:34:48.653Z,93.10
2023-03-15T16:37:19.480Z,93.50
2023-03-15T16:39:48.084Z,93.90
2023-03-15T16:42:17.195Z,93.40
2023-03-15T16:44:46.807Z,94.40
2023-03-15T16:47:13.836Z,95.20
2023-03-15T16:49:40.750Z,94.50
2023-03-15T16:52:09.231Z,94.00
2023-03-15T16:54:41.223Z,93.80
2023-03-15T16:57:23.397Z,94.40
2023-03-15T16:59:50.610Z,94.70
2023-03-15T17:02:23.369Z,94.70
2023-03-15T17:04:50.940Z,94.10
2023-03-15T17:07:18.476Z,94.20
2023-03-15T17:09:47.990Z,94.70
2023-03-15T17:12:24.789Z,96.10
2023-03-15T17:14:54.410Z,96.40
2023-03-15T17:17:21.852Z,96.70
2023-03-15T17:19:48.783Z,96.50
2023-03-15T17:22:17.396Z,96.70
2023-03-15T17:24:44.432Z,96.30
2023-03-15T17:27:30.524Z,96.80
2023-03-15T17:29:57.566Z,97.60
2023-03-15T17:32:24.399Z,97.60
2023-03-15T17:34:51.160Z,98.10
2023-03-15T17:37:18.572Z,98.00
2023-03-15T17:39:47.621Z,98.30
2023-03-15T17:42:15.136Z,98.00
2023-03-15T17:44:42.543Z,97.80
2023-03-15T17:47:11.611Z,98.20
2023-03-15T17:49:38.559Z,98.30
2023-03-15T17:52:11.261Z,98.30
2023-03-15T17:54:42.036Z,98.30
2023-03-15T17:57:14.187Z,98.30
2023-03-15T17:59:41.222Z,98.00
2023-03-15T18:02:25.218Z,98.00
2023-03-15T18:04:52.676Z,98.30
2023-03-15T18:07:20.591Z,98.20
2023-03-15T18:09:48.961Z,97.80
2023-03-15T18:12:16.941Z,98.20
2023-03-15T18:14:59.435Z,98.30
2023-03-15T18:17:27.264Z,98.30
2023-03-15T18:19:55.007Z,98.10
2023-03-15T18:22:22.890Z,98.10
2023-03-15T18:24:49.913Z,98.30
2023-03-15T18:27:16.563Z,98.30
2023-03-15T18:29:43.290Z,98.30
2023-03-15T18:32:10.636Z,98.30
2023-03-15T18:34:41.817Z,98.30
2023-03-15T18:37:11.473Z,98.30
2023-03-15T18:39:38.807Z,98.30
2023-03-15T18:42:05.537Z,98.30
2023-03-15T18:44:32.559Z,98.10
2023-03-15T18:46:59.473Z,98.30
2023-03-15T18:49:26.875Z,98.10
2023-03-15T18:51:55.222Z,98.00
2023-03-15T18:54:27.144Z,98.00
2023-03-15T18:56:53.805Z,97.90
2023-03-15T18:59:20.721Z,97.90
2023-03-15T19:01:47.396Z,98.10
2023-03-15T19:04:16.754Z,98.30
2023-03-15T19:06:43.727Z,98.30
2023-03-15T19:09:10.437Z,98.30
2023-03-15T19:11:41.594Z,98.30
2023-03-15T19:14:09.300Z,98.30
2023-03-15T19:16:35.988Z,98.30
2023-03-15T19:19:02.710Z,98.30
2023-03-15T19:21:29.593Z,98.30
2023-03-15T19:23:58.161Z,98.30
2023-03-15T19:26:25.048Z,98.20
2023-03-15T19:28:51.721Z,98.30
2023-03-15T19:31:18.479Z,98.30
2023-03-15T19:33:45.197Z,98.30
2023-03-15T19:36:11.944Z,98.20
2023-03-15T19:38:38.680Z,98.30
2023-03-15T19:41:07.784Z,98.30
2023-03-15T19:43:34.786Z,98.30
2023-03-15T19:46:01.565Z,98.30
2023-03-15T19:48:28.362Z,98.30
2023-03-15T19:50:55.006Z,98.30
2023-03-15T19:53:30.357Z,98.30
2023-03-15T19:56:09.799Z,98.30
2023-03-15T19:58:36.520Z,98.30
2023-03-15T20:01:03.378Z,98.30
2023-03-15T20:03:34.529Z,98.30
2023-03-15T20:06:15.069Z,98.30
2023-03-15T20:08:42.696Z,98.30
2023-03-15T20:11:10.264Z,98.30
2023-03-15T20:13:37.628Z,98.30
2023-03-15T20:16:05.794Z,98.30
2023-03-15T20:18:32.885Z,98.30
2023-03-15T20:20:59.534Z,98.30
2023-03-15T20:23:26.208Z,98.30
2023-03-15T20:26:02.482Z,98.30
2023-03-15T20:28:29.107Z,98.30
2023-03-15T20:30:55.982Z,98.30
2023-03-15T20:33:22.649Z,98.30
2023-03-15T20:35:49.340Z,98.30
2023-03-15T20:38:16.002Z,98.30
2023-03-15T20:40:44.012Z,98.30
2023-03-15T20:43:11.399Z,98.30
2023-03-15T20:45:39.065Z,98.20
2023-03-15T20:48:06.004Z,98.10
2023-03-15T20:50:33.000Z,98.20
2023-03-15T20:52:59.656Z,98.30
2023-03-15T20:55:26.314Z,98.30
2023-03-15T20:57:53.553Z,98.30
2023-03-15T21:00:22.899Z,98.30
2023-03-15T21:02:50.513Z,98.30
2023-03-15T21:05:17.619Z,98.30
2023-03-15T21:07:44.982Z,98.30
2023-03-15T21:10:15.507Z,98.30
2023-03-15T21:12:43.896Z,98.30
2023-03-15T21:15:15.336Z,98.30
2023-03-15T21:17:42.119Z,98.30
2023-03-15T21:20:11.176Z,98.30
2023-03-15T21:22:38.112Z,98.30
2023-03-15T21:25:05.652Z,98.30
2023-03-15T21:27:32.745Z,98.30
2023-03-15T21:29:59.653Z,98.30
2023-03-15T21:32:26.525Z,98.30
2023-03-15T21:34:53.199Z,98.30
2023-03-15T21:37:19.931Z,98.30
2023-03-15T21:39:46.592Z,98.30
2023-03-15T21:42:13.300Z,98.30
2023-03-15T21:44:40.308Z,98.30
2023-03-15T21:47:07.021Z,98.30
2023-03-15T21:49:43.011Z,98.30
2023-03-15T21:52:11.316Z,98.30
2023-03-15T21:54:38.875Z,98.30
2023-03-15T21:57:06.217Z,98.30
2023-03-15T21:59:33.796Z,98.30
2023-03-15T22:02:02.197Z,98.30
2023-03-15T22:04:31.637Z,98.30
2023-03-15T22:06:59.367Z,98.30
2023-03-15T22:09:26.966Z,98.30
2023-03-15T22:11:54.184Z,98.30
2023-03-15T22:14:29.716Z,98.30
2023-03-15T22:16:56.799Z,98.30
2023-03-15T22:19:23.537Z,98.30
2023-03-15T22:21:50.203Z,98.30
2023-03-15T22:24:16.883Z,98.30
2023-03-15T22:26:43.567Z,98.30
2023-03-15T22:29:10.896Z,98.30
2023-03-15T22:31:38.148Z,98.30
2023-03-15T22:34:05.661Z,98.30
2023-03-15T22:36:35.093Z,98.30
2023-03-15T22:39:02.461Z,98.30
2023-03-15T22:41:29.184Z,98.30
2023-03-15T22:44:00.282Z,98.30
2023-03-15T22:46:27.771Z,98.30
2023-03-15T22:48:54.711Z,98.30
2023-03-15T22:51:21.852Z,98.30
2023-03-15T22:53:48.532Z,98.30
2023-03-15T22:56:15.541Z,98.30
2023-03-15T22:58:42.491Z,98.30
2023-03-15T23:01:10.202Z,98.30
2023-03-15T23:03:37.114Z,98.30
2023-03-15T23:06:04.657Z,98.30
2023-03-15T23:08:31.810Z,98.30
2023-03-15T23:10:58.700Z,98.30
2023-03-15T23:13:25.469Z,98.30
2023-03-15T23:15:52.210Z,98.30
2023-03-15T23:18:18.885Z,98.30
2023-03-15T23:20:45.549Z,98.30
2023-03-15T23:23:12.200Z,98.30
2023-03-15T23:25:39.375Z,98.30
2023-03-15T23:28:07.333Z,98.30
2023-03-15T23:30:35.913Z,98.30
2023-03-15T23:33:03.723Z,98.30
2023-03-15T23:35:31.657Z,98.30
2023-03-15T23:37:58.733Z,98.30
2023-03-15T23:40:26.030Z,98.30
2023-03-15T23:42:58.530Z,98.30
2023-03-15T23:45:27.237Z,98.30
2023-03-15T23:47:54.129Z,98.30
2023-03-15T23:50:25.712Z,98.30
2023-03-15T23:52:54.523Z,98.30
2023-03-15T23:55:22.287Z,98.30
2023-03-15T23:57:49.154Z,98.30
